Time;durP1;ratioP1;P1;durP2;ratioP2;P2;SDS_P1;SDS_P2;PMS_P1;PMS_P2;Temp;Humidity;BMP_temperature;BMP_pressure;BME280_temperature;BME280_humidity;BME280_pressure;Samples;Min_cycle;Max_cycle;Signal;HPM_P1;HPM_P2
2023/03/11 10:05:13;;;;;;;1.90;0.40;;;8.40;99.10;;;;;;4952572;23;20631;-69
2023/03/11 10:07:43;;;;;;;2.50;0.40;;;8.60;99.40;;;;;;4937157;29;20725;-70
2023/03/11 10:10:13;;;;;;;1.50;0.40;;;8.60;99.90;;;;;;4937235;29;20216;-70
2023/03/11 10:12:49;;;;;;;0.77;0.50;;;8.30;99.50;;;;;;4936406;29;20569;-70
2023/03/11 10:15:23;;;;;;;0.30;0.30;;;8.10;99.50;;;;;;4936900;29;20260;-70
2023/03/11 10:18:08;;;;;;;0.80;0.30;;;8.20;99.10;;;;;;4936737;29;20217;-69
2023/03/11 10:20:45;;;;;;;3.60;0.40;;;8.40;98.80;;;;;;4934953;29;20726;-70
2023/03/11 10:23:24;;;;;;;5.43;0.50;;;8.30;98.80;;;;;;4936805;29;20208;-69
2023/03/11 10:25:58;;;;;;;0.40;0.20;;;8.40;99.50;;;;;;4936675;29;20211;-70
2023/03/11 10:28:28;;;;;;;1.77;0.27;;;8.50;99.70;;;;;;4936550;29;20299;-70
2023/03/11 10:31:00;;;;;;;5.70;0.40;;;8.70;98.90;;;;;;4936325;29;20217;-69
2023/03/11 10:33:31;;;;;;;1.40;0.27;;;8.70;98.20;;;;;;4936345;29;20215;-70
2023/03/11 10:36:05;;;;;;;2.10;0.40;;;8.90;97.90;;;;;;4936264;29;20215;-69
2023/03/11 10:38:34;;;;;;;2.87;0.40;;;9.10;98.20;;;;;;4936550;29;20224;-71
2023/03/11 10:41:06;;;;;;;4.83;0.40;;;9.20;97.90;;;;;;4936128;29;20244;-70
2023/03/11 10:43:38;;;;;;;1.83;0.50;;;9.00;98.10;;;;;;4935428;29;20203;-70
2023/03/11 10:46:13;;;;;;;3.77;0.57;;;9.10;98.50;;;;;;4936104;29;20291;-70
2023/03/11 10:48:39;;;;;;;1.80;0.57;;;9.20;97.70;;;;;;4933535;29;20208;-70
2023/03/11 10:51:16;;;;;;;3.10;0.50;;;9.20;97.60;;;;;;4932241;29;20311;-70
2023/03/11 10:53:48;;;;;;;1.70;0.30;;;9.10;97.70;;;;;;4932882;29;20644;-69
2023/03/11 10:56:26;;;;;;;2.23;0.40;;;8.90;97.40;;;;;;4933148;29;20216;-72
2023/03/11 10:58:53;;;;;;;1.40;0.30;;;8.80;97.70;;;;;;4934847;29;20200;-70
2023/03/11 11:01:20;;;;;;;1.47;0.43;;;9.00;97.90;;;;;;4932621;29;20292;-69
2023/03/11 11:03:49;;;;;;;1.77;0.50;;;9.40;97.40;;;;;;4934572;29;20269;-69
2023/03/11 11:06:24;;;;;;;1.37;0.40;;;9.80;96.90;;;;;;4934623;29;20249;-70
2023/03/11 11:09:13;;;;;;;0.50;0.33;;;9.50;96.60;;;;;;4934882;29;20208;-69
2023/03/11 11:11:40;;;;;;;3.87;0.90;;;9.00;97.40;;;;;;4932404;29;20231;-70
2023/03/11 11:14:08;;;;;;;2.90;0.60;;;8.70;97.60;;;;;;4934805;29;20252;-70
2023/03/11 11:16:35;;;;;;;1.47;0.60;;;8.80;97.40;;;;;;4934751;29;20201;-70
2023/03/11 11:19:04;;;;;;;2.20;0.30;;;8.80;97.90;;;;;;4934475;29;20201;-69
2023/03/11 11:21:36;;;;;;;2.60;0.70;;;8.80;97.40;;;;;;4934677;29;20263;-70
2023/03/11 11:24:20;;;;;;;2.53;0.50;;;9.10;98.00;;;;;;4934924;29;20239;-70
2023/03/11 11:27:05;;;;;;;1.37;0.50;;;9.10;97.90;;;;;;4933261;29;20219;-69
2023/03/11 11:29:33;;;;;;;1.83;0.47;;;9.40;96.90;;;;;;4934792;29;20216;-70
2023/03/11 11:32:17;;;;;;;2.23;0.50;;;9.40;97.10;;;;;;4935052;29;20229;-69
2023/03/11 11:34:54;;;;;;;2.13;0.40;;;9.20;97.60;;;;;;4934998;29;20205;-69
2023/03/11 11:37:25;;;;;;;2.27;0.53;;;8.90;97.30;;;;;;4934968;29;20212;-69
2023/03/11 11:39:55;;;;;;;1.80;0.37;;;8.90;98.40;;;;;;4934788;29;20238;-69
2023/03/11 11:42:24;;;;;;;2.47;0.30;;;9.20;98.80;;;;;;4935360;29;20331;-70
2023/03/11 11:44:56;;;;;;;2.70;0.50;;;9.30;98.90;;;;;;4935540;29;20213;-70
2023/03/11 11:47:27;;;;;;;1.50;0.40;;;9.40;99.20;;;;;;4935444;29;20220;-69
2023/03/11 11:49:57;;;;;;;3.67;0.53;;;9.70;99.30;;;;;;4935261;29;20212;-71
2023/03/11 11:52:30;;;;;;;1.53;0.60;;;9.50;98.10;;;;;;4935191;29;20228;-71
2023/03/11 11:55:01;;;;;;;1.30;0.40;;;9.30;98.70;;;;;;4935634;29;20205;-69
2023/03/11 11:57:29;;;;;;;2.27;0.70;;;9.30;98.80;;;;;;4935391;29;20291;-68
2023/03/11 11:59:56;;;;;;;0.87;0.40;;;9.50;97.80;;;;;;4935209;29;20326;-69
2023/03/11 12:02:46;;;;;;;2.50;0.57;;;9.60;98.30;;;;;;4934889;29;20237;-69
2023/03/11 12:05:18;;;;;;;3.70;0.60;;;9.50;99.30;;;;;;4932160;29;20209;-69
2023/03/11 12:08:03;;;;;;;3.23;0.40;;;9.40;98.00;;;;;;4934754;29;20208;-69
2023/03/11 12:10:33;;;;;;;0.60;0.30;;;9.40;97.70;;;;;;4934495;29;20205;-69
2023/03/11 12:13:27;;;;;;;1.40;0.43;;;9.80;98.50;;;;;;4934748;29;20265;-71
2023/03/11 12:16:00;;;;;;;1.33;0.47;;;9.50;98.60;;;;;;4934025;29;20620;-69
2023/03/11 12:18:34;;;;;;;2.70;0.80;;;9.40;98.30;;;;;;4934752;29;20714;-69
2023/03/11 12:21:09;;;;;;;5.57;0.60;;;9.40;99.20;;;;;;4934886;29;20232;-69
2023/03/11 12:23:45;;;;;;;3.70;0.50;;;9.60;97.70;;;;;;4934958;29;20212;-69
2023/03/11 12:26:17;;;;;;;1.17;0.50;;;9.70;98.60;;;;;;4935399;29;20209;-69
2023/03/11 12:28:51;;;;;;;1.10;0.43;;;9.60;97.70;;;;;;4935297;29;20205;-69
2023/03/11 12:31:19;;;;;;;0.90;0.40;;;9.50;98.70;;;;;;4934959;29;20599;-71
2023/03/11 12:33:49;;;;;;;2.10;0.43;;;9.70;96.90;;;;;;4934889;29;20209;-71
2023/03/11 12:36:25;;;;;;;5.43;0.60;;;9.90;97.70;;;;;;4934744;29;20209;-69
2023/03/11 12:38:54;;;;;;;1.70;0.60;;;9.70;99.10;;;;;;4932845;29;20213;-68
2023/03/11 12:41:30;;;;;;;2.73;0.93;;;9.40;99.80;;;;;;4933395;29;20287;-70
2023/03/11 12:44:23;;;;;;;2.60;0.60;;;9.30;98.30;;;;;;4933674;29;20292;-69
2023/03/11 12:47:18;;;;;;;2.40;0.70;;;9.00;99.60;;;;;;4935021;29;20212;-72
2023/03/11 12:49:46;;;;;;;4.20;0.77;;;9.10;99.90;;;;;;4934625;29;20215;-69
2023/03/11 12:52:23;;;;;;;1.30;0.50;;;9.30;99.30;;;;;;4934180;29;20233;-69
2023/03/11 12:55:35;;;;;;;3.23;0.60;;;9.40;98.10;;;;;;4938576;29;20213;-69
2023/03/11 12:58:39;;;;;;;3.57;0.67;;;9.50;98.70;;;;;;4938084;29;20213;-69
2023/03/11 13:02:00;;;;;;;3.03;0.70;;;9.40;99.70;;;;;;4937847;29;20236;-69
2023/03/11 13:04:53;;;;;;;2.27;0.87;;;9.30;98.50;;;;;;4847443;29;20679;-69
2023/03/11 13:07:46;;;;;;;2.03;1.03;;;9.10;98.60;;;;;;4937933;29;20205;-69
2023/03/11 13:10:21;;;;;;;2.57;0.63;;;9.00;99.20;;;;;;4938199;29;20208;-69
2023/03/11 13:12:49;;;;;;;2.40;0.50;;;9.20;99.60;;;;;;4937957;29;20228;-70
2023/03/11 13:15:40;;;;;;;5.07;0.70;;;9.10;99.90;;;;;;4937962;29;20216;-71
2023/03/11 13:18:29;;;;;;;0.90;0.70;;;8.90;99.90;;;;;;4938355;29;20244;-70
2023/03/11 13:20:58;;;;;;;1.93;0.67;;;8.90;99.60;;;;;;4932392;29;20249;-70
2023/03/11 13:23:28;;;;;;;1.40;0.60;;;9.00;99.40;;;;;;4937741;29;20244;-69
2023/03/11 13:26:33;;;;;;;6.03;0.60;;;8.80;98.50;;;;;;4937976;29;20217;-70
2023/03/11 13:29:28;;;;;;;4.80;0.70;;;8.70;99.00;;;;;;4936450;29;20686;-69
2023/03/11 13:32:19;;;;;;;6.70;0.90;;;8.70;99.90;;;;;;4937706;29;20711;-69
2023/03/11 13:34:55;;;;;;;2.83;0.70;;;8.80;99.10;;;;;;4937075;29;20227;-70
2023/03/11 13:37:34;;;;;;;2.83;0.60;;;8.90;99.90;;;;;;4937733;29;20216;-69
2023/03/11 13:40:12;;;;;;;2.40;0.63;;;8.90;99.60;;;;;;4937718;29;20240;-69
2023/03/11 13:42:45;;;;;;;1.33;0.50;;;9.00;99.30;;;;;;4937456;29;20260;-69
2023/03/11 13:45:25;;;;;;;1.13;0.50;;;8.90;98.40;;;;;;4937828;29;20212;-72
2023/03/11 13:47:54;;;;;;;1.97;0.50;;;8.90;98.70;;;;;;4937760;29;20213;-69
2023/03/11 13:50:26;;;;;;;5.97;0.60;;;8.90;98.60;;;;;;4937438;29;20209;-69
2023/03/11 13:52:54;;;;;;;0.93;0.50;;;8.90;99.50;;;;;;4937284;29;20235;-70
2023/03/11 13:55:25;;;;;;;1.83;0.40;;;8.70;99.10;;;;;;4937193;29;20567;-70
2023/03/11 13:57:54;;;;;;;2.87;0.67;;;8.90;98.50;;;;;;4937301;29;20220;-69
2023/03/11 14:00:24;;;;;;;0.73;0.40;;;8.80;98.50;;;;;;4937386;29;20243;-70
2023/03/11 14:02:55;;;;;;;2.10;0.43;;;8.80;99.20;;;;;;4936974;29;20291;-69
2023/03/11 14:05:25;;;;;;;2.13;0.53;;;8.70;99.60;;;;;;4936990;29;20227;-70
2023/03/11 14:07:52;;;;;;;1.80;0.67;;;8.60;99.90;;;;;;4937268;29;20312;-70
2023/03/11 14:10:26;;;;;;;4.57;0.60;;;8.70;99.90;;;;;;4937334;29;20672;-72
2023/03/11 14:13:05;;;;;;;7.33;1.90;;;8.90;99.90;;;;;;4937040;29;20232;-70
2023/03/11 14:15:43;;;;;;;2.20;1.43;;;9.00;99.90;;;;;;4937092;29;20204;-70
2023/03/11 14:18:30;;;;;;;1.53;0.40;;;9.10;99.80;;;;;;4937030;29;20220;-73
2023/03/11 14:20:57;;;;;;;1.37;0.90;;;9.10;99.10;;;;;;4936647;29;20233;-70
2023/03/11 14:23:28;;;;;;;3.50;0.57;;;9.30;99.50;;;;;;4936894;29;20664;-70
2023/03/11 14:26:03;;;;;;;2.67;0.80;;;9.30;99.80;;;;;;4937029;29;20308;-70
2023/03/11 14:28:34;;;;;;;2.33;0.77;;;9.00;99.70;;;;;;4937041;29;20220;-70
2023/03/11 14:31:04;;;;;;;2.43;0.70;;;8.70;99.90;;;;;;4936931;29;20299;-71
2023/03/11 14:33:30;;;;;;;1.77;0.50;;;8.50;99.90;;;;;;4937147;29;20299;-69
2023/03/11 14:35:59;;;;;;;1.07;0.50;;;8.50;99.30;;;;;;4936855;29;20231;-71
2023/03/11 14:38:29;;;;;;;3.13;0.60;;;8.60;99.90;;;;;;4936796;29;20216;-70
2023/03/11 14:40:57;;;;;;;4.57;0.60;;;8.70;99.90;;;;;;4936270;29;20240;-71
2023/03/11 14:43:25;;;;;;;2.67;0.60;;;8.90;98.90;;;;;;4936331;29;20215;-70
2023/03/11 14:45:53;;;;;;;2.73;0.50;;;9.00;98.70;;;;;;4936572;29;20205;-70
2023/03/11 14:48:28;;;;;;;1.77;0.57;;;9.10;98.80;;;;;;4936450;29;20209;-69
2023/03/11 14:50:56;;;;;;;1.53;0.63;;;9.00;99.90;;;;;;4936561;29;20276;-70
2023/03/11 14:53:26;;;;;;;3.00;0.60;;;9.10;99.30;;;;;;4936442;29;20219;-69
2023/03/11 14:55:57;;;;;;;3.70;0.90;;;9.20;99.40;;;;;;4926719;29;20223;-70
2023/03/11 14:58:30;;;;;;;1.63;0.50;;;9.20;98.40;;;;;;4915031;29;20209;-69
2023/03/11 15:01:01;;;;;;;1.83;0.50;;;9.00;98.90;;;;;;4914982;29;20361;-69
2023/03/11 15:03:31;;;;;;;4.43;0.50;;;9.10;98.70;;;;;;4916654;29;20205;-69
2023/03/11 15:06:02;;;;;;;2.00;0.70;;;8.90;98.70;;;;;;4915930;29;20236;-69
2023/03/11 15:08:31;;;;;;;2.10;0.70;;;8.80;98.90;;;;;;4916478;29;20216;-69
2023/03/11 15:11:08;;;;;;;1.43;0.50;;;8.80;98.30;;;;;;4917457;29;20309;-70
2023/03/11 15:13:36;;;;;;;1.67;0.67;;;8.90;98.30;;;;;;4917448;29;20216;-70
2023/03/11 15:16:05;;;;;;;4.37;0.60;;;9.10;98.00;;;;;;4916512;29;20695;-70
2023/03/11 15:18:36;;;;;;;1.90;0.70;;;9.30;97.40;;;;;;4917049;29;20257;-70
2023/03/11 15:21:07;;;;;;;3.50;0.67;;;9.30;97.60;;;;;;4916760;29;20234;-71
2023/03/11 15:23:35;;;;;;;4.43;0.60;;;9.20;97.30;;;;;;4917165;29;20209;-70
2023/03/11 15:26:05;;;;;;;1.53;0.60;;;9.10;96.70;;;;;;4917191;29;20209;-70
2023/03/11 15:28:33;;;;;;;1.93;0.50;;;9.00;96.50;;;;;;4916932;29;20213;-70
2023/03/11 15:31:30;;;;;;;2.87;0.70;;;8.90;96.60;;;;;;4916758;29;20206;-70
2023/03/11 15:34:34;;;;;;;0.97;0.50;;;9.30;97.00;;;;;;4917016;29;20214;-71
2023/03/11 15:37:06;;;;;;;2.00;0.73;;;9.70;96.40;;;;;;4904372;29;20689;-70
2023/03/11 15:39:45;;;;;;;2.90;0.53;;;9.70;96.60;;;;;;4916647;29;20213;-69
2023/03/11 15:42:24;;;;;;;1.60;0.50;;;9.70;97.30;;;;;;4916606;29;20248;-70
2023/03/11 15:45:15;;;;;;;1.40;0.50;;;9.50;96.50;;;;;;4916613;29;20745;-70
2023/03/11 15:47:42;;;;;;;2.33;0.50;;;9.70;96.00;;;;;;4916417;29;20316;-70
2023/03/11 15:50:22;;;;;;;1.57;0.60;;;9.60;96.20;;;;;;4916484;29;20209;-70
2023/03/11 15:52:48;;;;;;;0.70;0.40;;;9.50;98.50;;;;;;4916429;29;20233;-71
2023/03/11 15:55:15;;;;;;;3.73;0.70;;;9.60;97.00;;;;;;4916597;29;20209;-72
2023/03/11 15:57:42;;;;;;;2.37;0.60;;;9.50;97.30;;;;;;4916729;29;20750;-70
2023/03/11 16:00:17;;;;;;;5.13;0.60;;;9.30;97.90;;;;;;4916497;29;20213;-70
2023/03/11 16:02:44;;;;;;;3.00;0.60;;;9.10;97.60;;;;;;4917342;29;20243;-70
2023/03/11 16:05:17;;;;;;;1.40;0.57;;;9.00;98.60;;;;;;4916421;29;20217;-70
2023/03/11 16:07:45;;;;;;;2.00;0.40;;;8.80;98.70;;;;;;4916790;29;20216;-70
2023/03/11 16:10:14;;;;;;;1.00;0.50;;;8.80;99.40;;;;;;4916501;29;20206;-70
2023/03/11 16:12:41;;;;;;;1.83;0.40;;;8.60;98.80;;;;;;4916415;29;20238;-69
2023/03/11 16:15:19;;;;;;;2.07;0.57;;;8.60;99.50;;;;;;4916539;29;20665;-69
2023/03/11 16:17:45;;;;;;;2.90;0.43;;;8.40;99.60;;;;;;4916553;29;20587;-70
2023/03/11 16:20:12;;;;;;;2.10;0.40;;;8.40;99.90;;;;;;4916188;29;20308;-70
2023/03/11 16:22:41;;;;;;;10.13;4.67;;;8.20;99.20;;;;;;4916132;29;20245;-70
2023/03/11 16:25:14;;;;;;;6.33;2.67;;;8.30;99.70;;;;;;4916058;29;20217;-70
2023/03/11 16:27:41;;;;;;;4.90;1.40;;;8.00;99.50;;;;;;4918849;29;20214;-70
2023/03/11 16:30:10;;;;;;;4.87;1.73;;;8.00;99.90;;;;;;4920228;29;20232;-69
2023/03/11 16:32:36;;;;;;;1.97;0.90;;;8.20;99.20;;;;;;4919926;29;20258;-69
2023/03/11 16:35:04;;;;;;;1.67;0.60;;;8.40;99.30;;;;;;4920046;29;20214;-69
2023/03/11 16:37:30;;;;;;;3.10;0.60;;;8.30;99.30;;;;;;4920118;29;20576;-70
2023/03/11 16:39:59;;;;;;;3.00;0.50;;;8.50;98.80;;;;;;4919910;29;20205;-69
2023/03/11 16:42:25;;;;;;;1.73;0.70;;;8.40;99.00;;;;;;4920056;29;20241;-70
2023/03/11 16:44:53;;;;;;;2.33;0.70;;;8.50;98.90;;;;;;4919746;29;20213;-73
2023/03/11 16:47:19;;;;;;;3.90;0.80;;;8.50;98.50;;;;;;4919855;29;20218;-69
2023/03/11 16:49:49;;;;;;;1.57;0.70;;;8.40;99.20;;;;;;4919641;29;20209;-69
2023/03/11 16:52:18;;;;;;;2.77;1.00;;;8.40;98.80;;;;;;4919353;29;20325;-69
2023/03/11 16:54:45;;;;;;;2.57;0.93;;;8.40;98.90;;;;;;4919460;29;20293;-68
2023/03/11 16:57:13;;;;;;;7.77;1.40;;;8.50;99.00;;;;;;4919510;29;20210;-69
2023/03/11 16:59:40;;;;;;;1.30;0.60;;;8.50;99.90;;;;;;4919777;29;20221;-69
2023/03/11 17:02:09;;;;;;;4.70;0.70;;;8.40;99.70;;;;;;4919426;29;20252;-69
2023/03/11 17:04:37;;;;;;;1.33;0.70;;;8.30;99.50;;;;;;4919461;29;20217;-69
2023/03/11 17:07:04;;;;;;;3.90;0.87;;;8.10;99.80;;;;;;4919052;29;20209;-69
2023/03/11 17:09:31;;;;;;;1.23;0.70;;;8.00;99.90;;;;;;4919324;29;20209;-69
2023/03/11 17:11:58;;;;;;;2.00;1.10;;;8.00;99.90;;;;;;4919420;29;20598;-69
2023/03/11 17:14:27;;;;;;;1.70;1.00;;;7.90;99.90;;;;;;4919308;29;20216;-69
2023/03/11 17:16:54;;;;;;;2.50;0.97;;;7.80;99.90;;;;;;4919298;29;20224;-70
2023/03/11 17:19:22;;;;;;;2.10;0.93;;;7.80;99.90;;;;;;4918919;29;20210;-68
2023/03/11 17:21:49;;;;;;;3.60;0.83;;;7.80;99.90;;;;;;4918853;29;20252;-69
2023/03/11 17:24:16;;;;;;;2.67;0.67;;;7.70;99.90;;;;;;4918881;29;20213;-72
2023/03/11 17:26:43;;;;;;;1.43;0.83;;;7.50;99.90;;;;;;4919271;29;20569;-70
2023/03/11 17:29:10;;;;;;;2.20;0.90;;;7.40;99.90;;;;;;4919087;29;20708;-68
2023/03/11 17:31:38;;;;;;;2.73;0.70;;;7.50;99.90;;;;;;4918844;29;20244;-69
2023/03/11 17:34:05;;;;;;;6.10;0.50;;;7.60;99.90;;;;;;4918844;29;20212;-69
2023/03/11 17:36:31;;;;;;;4.07;0.77;;;7.70;99.90;;;;;;4919023;29;20301;-68
2023/03/11 17:38:58;;;;;;;3.33;0.93;;;7.70;99.90;;;;;;4918004;29;20702;-69
2023/03/11 17:41:26;;;;;;;2.90;0.83;;;7.70;99.90;;;;;;4918919;29;20238;-69
2023/03/11 17:43:52;;;;;;;3.20;0.80;;;7.60;99.90;;;;;;4918876;29;20217;-69
2023/03/11 17:46:21;;;;;;;2.90;0.83;;;7.60;99.90;;;;;;4918522;29;20219;-70
2023/03/11 17:48:50;;;;;;;3.17;0.90;;;7.40;99.90;;;;;;4918368;29;20213;-70
2023/03/11 17:51:19;;;;;;;3.30;1.53;;;7.40;99.90;;;;;;4918582;29;20226;-69
2023/03/11 17:53:47;;;;;;;3.33;1.47;;;7.40;99.90;;;;;;4918659;29;20216;-69
2023/03/11 17:56:16;;;;;;;5.07;1.63;;;7.30;99.90;;;;;;4918362;29;20217;-71
2023/03/11 17:58:43;;;;;;;4.90;1.50;;;7.10;99.90;;;;;;4918521;29;20213;-70
2023/03/11 18:01:13;;;;;;;3.57;1.10;;;7.00;99.90;;;;;;4917909;29;20241;-69
2023/03/11 18:03:40;;;;;;;3.40;1.23;;;7.00;99.90;;;;;;4918436;29;20209;-68
2023/03/11 18:06:09;;;;;;;1.60;1.00;;;6.90;99.90;;;;;;4918578;29;20221;-69
2023/03/11 18:08:36;;;;;;;1.90;1.20;;;6.80;99.90;;;;;;4918398;29;20228;-69
2023/03/11 18:11:05;;;;;;;4.83;1.33;;;6.80;99.90;;;;;;4918372;29;20237;-68
2023/03/11 18:13:33;;;;;;;2.80;0.93;;;6.60;99.90;;;;;;4918287;29;20242;-68
2023/03/11 18:16:02;;;;;;;1.83;0.90;;;6.60;99.90;;;;;;4918281;29;20214;-69
2023/03/11 18:18:30;;;;;;;3.57;1.00;;;6.50;99.90;;;;;;4918244;29;20210;-69
2023/03/11 18:21:01;;;;;;;2.90;1.30;;;6.40;99.90;;;;;;4918119;29;20213;-69
2023/03/11 18:23:31;;;;;;;4.40;1.37;;;6.40;99.90;;;;;;4918232;29;20680;-68
2023/03/11 18:25:59;;;;;;;3.80;1.23;;;6.40;99.90;;;;;;4917919;29;20305;-69
2023/03/11 18:28:25;;;;;;;4.57;1.60;;;6.30;99.90;;;;;;4917948;29;20209;-71
2023/03/11 18:30:53;;;;;;;2.77;1.70;;;6.30;99.90;;;;;;4917985;29;20296;-70
2023/03/11 18:33:20;;;;;;;7.43;1.90;;;6.10;99.90;;;;;;4917933;29;20257;-71
2023/03/11 18:35:47;;;;;;;3.53;2.13;;;6.10;99.90;;;;;;4917592;29;20257;-69
2023/03/11 18:38:14;;;;;;;5.17;2.63;;;6.00;99.90;;;;;;4919324;29;20220;-69
2023/03/11 18:40:43;;;;;;;5.90;2.40;;;5.80;99.90;;;;;;4918527;29;20220;-68
2023/03/11 18:43:13;;;;;;;5.83;2.37;;;5.70;99.90;;;;;;4917543;29;20244;-73
2023/03/11 18:45:40;;;;;;;6.53;2.70;;;5.50;99.90;;;;;;4917934;29;20213;-69
2023/03/11 18:48:06;;;;;;;11.67;4.03;;;5.40;99.90;;;;;;4917699;29;20684;-74
2023/03/11 18:50:33;;;;;;;6.67;3.17;;;5.30;99.90;;;;;;4916536;29;20213;-69
2023/03/11 18:53:00;;;;;;;8.40;3.30;;;5.30;99.90;;;;;;4917931;29;20237;-70
2023/03/11 18:55:27;;;;;;;7.93;3.30;;;5.20;99.90;;;;;;4917554;29;20260;-74
2023/03/11 18:57:55;;;;;;;6.43;3.20;;;5.30;99.90;;;;;;4917947;29;20210;-73
2023/03/11 19:00:23;;;;;;;6.00;3.03;;;5.10;99.90;;;;;;4917794;29;20300;-70
2023/03/11 19:02:53;;;;;;;13.73;3.43;;;5.00;99.90;;;;;;4917632;29;20249;-70
2023/03/11 19:05:20;;;;;;;5.90;3.60;;;4.90;99.90;;;;;;4917172;29;20226;-69
2023/03/11 19:07:47;;;;;;;6.13;3.47;;;4.80;99.90;;;;;;4917096;29;20206;-70
2023/03/11 19:10:16;;;;;;;8.00;3.80;;;4.80;99.90;;;;;;4917446;29;20581;-70
2023/03/11 19:12:44;;;;;;;11.10;4.77;;;4.60;99.90;;;;;;4917455;29;20252;-71
2023/03/11 19:15:13;;;;;;;9.93;4.57;;;4.70;99.90;;;;;;4917243;29;20209;-71
2023/03/11 19:17:40;;;;;;;12.67;4.47;;;4.60;99.90;;;;;;4917315;29;20640;-69
2023/03/11 19:20:08;;;;;;;10.23;4.37;;;4.50;99.90;;;;;;4917082;29;20212;-70
2023/03/11 19:22:35;;;;;;;12.07;5.43;;;4.40;99.90;;;;;;4916824;29;20324;-71
2023/03/11 19:25:03;;;;;;;9.87;4.87;;;4.40;99.90;;;;;;4916901;29;20209;-69
2023/03/11 19:27:30;;;;;;;10.03;4.67;;;4.40;99.90;;;;;;4917211;29;20219;-70
2023/03/11 19:29:57;;;;;;;11.80;5.23;;;4.30;99.90;;;;;;4917188;29;20220;-70
2023/03/11 19:32:25;;;;;;;13.17;5.60;;;4.30;99.90;;;;;;4917160;29;20241;-71
2023/03/11 19:34:52;;;;;;;17.47;6.43;;;4.30;99.90;;;;;;4916847;29;20703;-69
2023/03/11 19:37:18;;;;;;;16.47;6.13;;;4.20;99.90;;;;;;4917052;29;20213;-70
2023/03/11 19:39:45;;;;;;;13.10;5.90;;;4.20;99.90;;;;;;4916705;29;20215;-69
2023/03/11 19:42:12;;;;;;;12.20;5.27;;;4.20;99.90;;;;;;4916435;29;20233;-70
2023/03/11 19:44:39;;;;;;;10.93;5.37;;;4.20;99.90;;;;;;4916557;29;20577;-70
2023/03/11 19:47:05;;;;;;;16.33;5.70;;;4.20;99.90;;;;;;4916758;29;20213;-70
2023/03/11 19:49:34;;;;;;;15.87;6.50;;;4.20;99.90;;;;;;4916836;29;20214;-70
2023/03/11 19:52:01;;;;;;;10.30;5.67;;;4.20;99.90;;;;;;4916869;29;20234;-71
2023/03/11 19:54:28;;;;;;;15.77;6.00;;;4.20;99.90;;;;;;4916757;29;20220;-70
2023/03/11 19:56:54;;;;;;;11.50;5.40;;;4.10;99.90;;;;;;4916828;29;20743;-69
2023/03/11 19:59:21;;;;;;;12.97;5.57;;;4.10;99.90;;;;;;4916658;29;20216;-70
2023/03/11 20:01:48;;;;;;;12.40;5.47;;;4.10;99.90;;;;;;4917801;29;20585;-70
2023/03/11 20:04:15;;;;;;;16.13;6.03;;;4.20;99.90;;;;;;4920611;29;20221;-70
2023/03/11 20:06:43;;;;;;;14.30;6.87;;;4.30;99.90;;;;;;4920639;29;20265;-71
2023/03/11 20:09:11;;;;;;;12.43;5.77;;;4.40;99.90;;;;;;4920435;29;20672;-74
2023/03/11 20:11:39;;;;;;;12.17;6.23;;;4.60;99.90;;;;;;4920626;29;20235;-70
2023/03/11 20:14:06;;;;;;;14.33;5.87;;;4.70;99.90;;;;;;4920638;29;20213;-69
2023/03/11 20:16:33;;;;;;;11.03;6.20;;;4.70;99.90;;;;;;4920287;29;20213;-69
2023/03/11 20:19:00;;;;;;;16.00;6.43;;;4.80;99.90;;;;;;4920375;29;20665;-71
2023/03/11 20:21:27;;;;;;;15.23;6.40;;;4.80;99.90;;;;;;4920059;29;20239;-70
2023/03/11 20:23:56;;;;;;;13.63;6.70;;;4.80;99.90;;;;;;4919973;29;20634;-70
2023/03/11 20:26:24;;;;;;;12.13;6.80;;;4.90;99.90;;;;;;4920137;29;20706;-70
2023/03/11 20:28:54;;;;;;;12.83;6.23;;;5.00;99.90;;;;;;4920368;29;20748;-71
2023/03/11 20:31:23;;;;;;;10.13;5.80;;;5.00;99.90;;;;;;4920069;29;20233;-70
2023/03/11 20:33:51;;;;;;;13.40;5.70;;;5.10;99.90;;;;;;4920132;29;20217;-71
2023/03/11 20:36:21;;;;;;;15.53;6.37;;;5.10;99.90;;;;;;4919785;29;20209;-71
2023/03/11 20:38:48;;;;;;;14.90;6.73;;;5.10;99.90;;;;;;4919816;29;20220;-71
2023/03/11 20:41:17;;;;;;;13.73;6.43;;;5.00;99.90;;;;;;4920404;29;20229;-70
2023/03/11 20:43:44;;;;;;;14.00;6.23;;;5.00;99.90;;;;;;4919658;29;20233;-70
2023/03/11 20:46:12;;;;;;;11.70;6.37;;;4.90;99.90;;;;;;4919951;29;20209;-70
2023/03/11 20:48:40;;;;;;;15.27;6.80;;;4.90;99.90;;;;;;4919803;29;20214;-70
2023/03/11 20:51:09;;;;;;;15.37;6.27;;;4.90;99.90;;;;;;4919812;29;20222;-70
2023/03/11 20:53:36;;;;;;;14.10;6.30;;;5.00;99.90;;;;;;4919688;29;20213;-70
2023/03/11 20:56:08;;;;;;;17.50;6.97;;;5.00;99.90;;;;;;4919524;29;20214;-70
2023/03/11 20:58:37;;;;;;;16.43;6.27;;;5.10;99.90;;;;;;4919646;29;20246;-70
2023/03/11 21:01:10;;;;;;;14.33;6.50;;;5.20;99.90;;;;;;4919574;29;20273;-69
2023/03/11 21:03:37;;;;;;;13.43;6.43;;;5.20;99.90;;;;;;4919532;29;20245;-70
2023/03/11 21:06:04;;;;;;;13.13;6.23;;;5.20;99.90;;;;;;4919224;29;20681;-69
2023/03/11 21:08:31;;;;;;;12.57;6.50;;;5.20;99.90;;;;;;4919737;29;20216;-70
2023/03/11 21:11:00;;;;;;;13.77;6.60;;;5.20;99.90;;;;;;4919507;29;20217;-70
2023/03/11 21:13:26;;;;;;;12.77;6.47;;;5.20;99.90;;;;;;4918385;29;20249;-70
2023/03/11 21:15:55;;;;;;;13.53;5.90;;;5.20;99.90;;;;;;4919553;29;20213;-70
2023/03/11 21:18:21;;;;;;;12.30;6.07;;;5.20;99.90;;;;;;4919099;29;20214;-70
2023/03/11 21:20:48;;;;;;;11.50;4.87;;;5.20;99.90;;;;;;4919037;29;20579;-70
2023/03/11 21:23:15;;;;;;;10.17;5.23;;;5.20;99.90;;;;;;4919137;29;20245;-70
2023/03/11 21:25:42;;;;;;;14.80;5.23;;;5.20;99.90;;;;;;4919501;29;20218;-70
2023/03/11 21:28:09;;;;;;;10.53;4.57;;;5.20;99.90;;;;;;4919314;29;20212;-70
2023/03/11 21:30:36;;;;;;;9.60;4.53;;;5.20;99.90;;;;;;4919182;29;20209;-69
2023/03/11 21:33:04;;;;;;;12.77;4.80;;;5.20;99.90;;;;;;4919160;29;20320;-70
2023/03/11 21:35:31;;;;;;;10.37;3.93;;;5.30;99.90;;;;;;4919199;29;20217;-70
2023/03/11 21:37:58;;;;;;;10.60;4.57;;;5.40;99.90;;;;;;4918901;29;20760;-69
2023/03/11 21:40:25;;;;;;;6.60;3.83;;;5.40;99.90;;;;;;4918800;29;20680;-70
2023/03/11 21:42:52;;;;;;;10.13;4.13;;;5.40;99.90;;;;;;4918570;29;20244;-70
2023/03/11 21:45:19;;;;;;;6.97;3.80;;;5.50;99.90;;;;;;4918715;29;20216;-70
2023/03/11 21:47:46;;;;;;;7.77;3.67;;;5.50;99.90;;;;;;4918892;29;20221;-69
2023/03/11 21:50:14;;;;;;;6.83;2.87;;;5.50;99.90;;;;;;4918618;29;20216;-70
2023/03/11 21:52:41;;;;;;;6.63;3.80;;;5.40;99.90;;;;;;4918830;29;20241;-70
2023/03/11 21:55:08;;;;;;;8.17;3.10;;;5.40;99.90;;;;;;4918621;29;20209;-69
2023/03/11 21:57:35;;;;;;;5.33;2.23;;;5.40;99.90;;;;;;4918786;29;20214;-70
2023/03/11 22:00:02;;;;;;;9.27;2.67;;;5.50;99.90;;;;;;4918869;29;20210;-69
2023/03/11 22:02:28;;;;;;;3.77;2.50;;;5.60;99.90;;;;;;4919081;29;20230;-70
2023/03/11 22:04:55;;;;;;;3.90;2.37;;;5.60;99.90;;;;;;4918205;29;20577;-70
2023/03/11 22:07:23;;;;;;;7.63;2.97;;;5.50;99.90;;;;;;4918132;29;20240;-70
2023/03/11 22:09:50;;;;;;;5.30;2.60;;;5.60;99.90;;;;;;4918577;29;20214;-70
2023/03/11 22:12:17;;;;;;;7.37;2.47;;;5.60;99.90;;;;;;4918382;29;20316;-70
2023/03/11 22:14:44;;;;;;;6.00;2.60;;;5.60;99.90;;;;;;4918199;29;20220;-70
2023/03/11 22:17:11;;;;;;;5.23;2.50;;;5.70;99.90;;;;;;4918292;29;20221;-70
2023/03/11 22:19:37;;;;;;;6.70;2.93;;;5.70;99.90;;;;;;4918039;29;20224;-71
2023/03/11 22:22:04;;;;;;;4.40;2.53;;;5.60;99.90;;;;;;4917946;29;20229;-70
2023/03/11 22:24:33;;;;;;;5.20;2.03;;;5.70;99.90;;;;;;4917554;29;20237;-70
2023/03/11 22:26:59;;;;;;;4.03;2.40;;;5.80;99.90;;;;;;4918073;29;20237;-70
2023/03/11 22:29:26;;;;;;;5.80;2.27;;;5.70;99.90;;;;;;4918089;29;20220;-70
2023/03/11 22:31:53;;;;;;;5.90;2.60;;;5.70;99.90;;;;;;4917706;29;20320;-70
2023/03/11 22:34:20;;;;;;;5.67;2.80;;;5.70;99.90;;;;;;4917726;29;20221;-69
2023/03/11 22:36:46;;;;;;;8.70;2.30;;;5.80;99.90;;;;;;4917758;29;20212;-72
2023/03/11 22:39:13;;;;;;;5.60;2.30;;;5.80;99.90;;;;;;4917978;29;20206;-71
2023/03/11 22:41:41;;;;;;;8.47;2.60;;;5.50;99.90;;;;;;4918239;29;20236;-70
2023/03/11 22:44:08;;;;;;;4.30;1.90;;;5.50;99.90;;;;;;4917664;29;20241;-70
2023/03/11 22:46:35;;;;;;;5.43;1.97;;;5.80;99.90;;;;;;4917743;29;20209;-70
2023/03/11 22:49:01;;;;;;;4.57;1.70;;;5.80;99.90;;;;;;4917863;29;20209;-70
2023/03/11 22:51:28;;;;;;;7.53;2.13;;;5.80;99.90;;;;;;4917437;29;20233;-70
2023/03/11 22:53:55;;;;;;;5.37;2.20;;;5.80;99.90;;;;;;4917517;29;20692;-70
2023/03/11 22:56:22;;;;;;;4.80;2.10;;;5.80;99.90;;;;;;4917578;29;20676;-70
2023/03/11 22:58:50;;;;;;;5.50;2.10;;;5.90;99.90;;;;;;4917317;29;20228;-70
2023/03/11 23:01:17;;;;;;;6.30;2.10;;;5.80;99.90;;;;;;4917347;29;20238;-70
2023/03/11 23:03:44;;;;;;;4.50;2.10;;;5.80;99.90;;;;;;4917401;29;20240;-70
2023/03/11 23:06:13;;;;;;;6.73;2.20;;;5.70;99.90;;;;;;4917219;29;20214;-71
2023/03/11 23:08:40;;;;;;;5.83;2.30;;;5.80;99.90;;;;;;4917187;29;20214;-70
2023/03/11 23:11:11;;;;;;;4.23;2.13;;;5.90;99.90;;;;;;4916937;29;20737;-71
2023/03/11 23:13:39;;;;;;;7.20;2.50;;;5.80;99.90;;;;;;4916940;29;20210;-71
2023/03/11 23:16:09;;;;;;;7.63;2.47;;;5.70;99.90;;;;;;4917529;29;20216;-71
2023/03/11 23:18:37;;;;;;;12.20;2.90;;;5.70;99.90;;;;;;4917313;29;20216;-70